Wilson Cadiz — 8PSY — position and weather

sailwx.info

Track history (hours):
 
Tides and Currents Weather Stations Pressure Air Temp Water Temp Dewpoint Dewpoint Depression Visibility Wind Speed Wind Dir Waves Ship Positions

Wilson Cadiz

Last reported at 2017-Oct-19 12:30 UTC. Time now 2017-Oct-19 12:58 UTC.
Position N 52°52' E 002°03'.

Length 100 m; draft 3.6 m.

Type: Ship. MMSI: 314216000.

Date/timePositionNaut miles runAvg speedWind from/ knotsBaromVisibWave heightAir tempDewpointWater temp
2017-Oct-19 12:30N 52°52' E 002°03'714.5
2017-Oct-19 12:00N 52°47' E 002°12'713.2
2017-Oct-19 11:29N 52°44' E 002°22'713.1
2017-Oct-19 10:59N 52°42' E 002°33'1412.9
2017-Oct-19 09:55N 52°38' E 002°55'513.0
2017-Oct-19 09:30N 52°37' E 003°03'611.9
2017-Oct-19 09:00N 52°34' E 003°12'712.9
2017-Oct-19 08:30N 52°33' E 003°22'713.0
2017-Oct-19 07:59N 52°31' E 003°33'713.2
2017-Oct-19 07:29N 52°31' E 003°44'613.2
2017-Oct-19 07:00N 52°31' E 003°54'613.0
2017-Oct-19 06:30N 52°31' E 004°05'612.8
2017-Oct-19 06:00N 52°30' E 004°15'612.5
2017-Oct-19 05:30N 52°29' E 004°26'611.4
2017-Oct-19 05:01N 52°28' E 004°35'1 1.7
2017-Oct-19 04:30N 52°28' E 004°36'0 0.0
2017-Oct-19 04:00N 52°28' E 004°36'0 0.0
2017-Oct-19 03:30N 52°28' E 004°36'1 1.5
2017-Oct-19 03:00N 52°28' E 004°37'4 7.7
2017-Oct-19 02:31N 52°26' E 004°43'510.4
2017-Oct-19 02:01N 52°25' E 004°51'1 1.7
2017-Oct-19 01:29N 52°24' E 004°51'0 0.0
2017-Oct-19 00:59N 52°24' E 004°51'0 0.0
2017-Oct-19 00:29N 52°24' E 004°51'0 0.0
2017-Oct-18 23:59N 52°24' E 004°51'0 0.0
2017-Oct-18 23:29N 52°24' E 004°51'0 0.0
2017-Oct-18 22:59N 52°24' E 004°51'0 0.0
2017-Oct-18 22:29N 52°24' E 004°51'0 0.0
2017-Oct-18 21:59N 52°24' E 004°51'0 0.0
2017-Oct-18 21:29N 52°24' E 004°51'0 0.0
2017-Oct-18 20:59N 52°24' E 004°51'0 0.0
2017-Oct-18 20:29N 52°24' E 004°51'0 0.0
2017-Oct-18 19:59N 52°24' E 004°51'0 0.0
2017-Oct-18 19:29N 52°24' E 004°51'0 0.0
2017-Oct-18 18:59N 52°24' E 004°51'0 0.0
2017-Oct-18 18:29N 52°24' E 004°51'0 0.0
2017-Oct-18 17:59N 52°24' E 004°51'0 0.0
2017-Oct-18 17:29N 52°24' E 004°51'0 0.0
2017-Oct-18 16:59N 52°24' E 004°51'0 0.0
2017-Oct-18 16:29N 52°24' E 004°51'0 0.0
2017-Oct-18 16:01N 52°24' E 004°51'1 1.5
2017-Oct-18 15:31N 52°24' E 004°53'4 8.5
2017-Oct-18 15:01N 52°26' E 004°46'7 6.5
2017-Oct-18 14:00N 52°28' E 004°36'1 1.1
2017-Oct-18 13:30N 52°28' E 004°35'4 8.9
2017-Oct-18 13:00N 52°28' E 004°28'4 8.2
2017-Oct-18 12:30N 52°28' E 004°21'510.9
2017-Oct-18 12:00N 52°29' E 004°12'510.5
2017-Oct-18 11:30N 52°28' E 004°04'510.7
2017-Oct-18 11:00N 52°27' E 003°55'610.6
2017-Oct-18 10:26N 52°26' E 003°45'710.6
2017-Oct-18 09:46N 52°27' E 003°34'410.8
2017-Oct-18 09:25N 52°28' E 003°28'510.6
2017-Oct-18 08:58N 52°29' E 003°20'710.6
2017-Oct-18 08:18N 52°31' E 003°09'410.7
2017-Oct-18 07:57N 52°32' E 003°03'510.7
2017-Oct-18 07:30N 52°33' E 002°56'610.7
2017-Oct-18 06:59N 52°34' E 002°47'1210.8
2017-Oct-18 05:54N 52°38' E 002°28'1711.1
2017-Oct-18 04:24N 52°44' E 002°03'1211.3
2017-Oct-18 03:19N 52°51' E 001°46'710.5
2017-Oct-18 02:41N 52°55' E 001°37'610.1
2017-Oct-18 02:04N 52°59' E 001°30'1 9.8
2017-Oct-18 02:00N 53°00' E 001°30'5 9.8
2017-Oct-18 01:29N 53°04' E 001°26'13 9.5
2017-Oct-18 00:10N 53°15' E 001°15'2 9.4
2017-Oct-17 23:57N 53°17' E 001°13'56 7.8
2017-Oct-17 16:45N 54°07' E 000°30'9 8.5
2017-Oct-17 15:42N 54°14' E 000°21'2 8.7
2017-Oct-17 15:30N 54°16' E 000°19'4 8.5
2017-Oct-17 15:00N 54°19' E 000°15'4 8.5
2017-Oct-17 14:30N 54°22' E 000°11'4 8.2
2017-Oct-17 14:00N 54°26' E 000°06'5 9.3
2017-Oct-17 13:30N 54°29' E 000°01'5 9.4
2017-Oct-17 13:00N 54°33' W 000°04'5 9.4
2017-Oct-17 12:30N 54°37' W 000°08'5 9.6
2017-Oct-17 12:00N 54°41' W 000°13'5 9.4
2017-Oct-17 11:30N 54°45' W 000°18'28 7.8
2017-Oct-17 07:52N 55°07' W 000°47'2 6.2
2017-Oct-17 07:30N 55°09' W 000°50'9 6.3
2017-Oct-17 06:01N 55°17' W 000°60'0 6.8
2017-Oct-17 06:00N 55°17' W 000°60'3 6.6
2017-Oct-17 05:30N 55°19' W 001°03'4 6.9
2017-Oct-17 04:59N 55°22' W 001°07'3 7.2
2017-Oct-17 04:30N 55°25' W 001°11'4 8.2
2017-Oct-17 04:00N 55°28' W 001°16'4 8.5
2017-Oct-17 03:30N 55°31' W 001°21'4 8.9
2017-Oct-17 03:00N 55°35' W 001°25'4 8.9
2017-Oct-17 02:30N 55°39' W 001°29'5 9.1
2017-Oct-17 01:59N 55°42' W 001°35'510.5
2017-Oct-17 01:29N 55°45' W 001°42'510.9
2017-Oct-17 01:00N 55°49' W 001°49'510.8
2017-Oct-17 00:30N 55°52' W 001°57'510.9
2017-Oct-17 00:00N 55°56' W 002°04'510.8
2017-Oct-16 23:30N 55°59' W 002°12'510.6
2017-Oct-16 23:00N 56°01' W 002°20'510.5
2017-Oct-16 22:30N 56°03' W 002°29'510.1
2017-Oct-16 22:00N 56°05' W 002°37'510.4
2017-Oct-16 21:30N 56°05' W 002°47'510.4
2017-Oct-16 21:00N 56°04' W 002°56'510.4
2017-Oct-16 20:30N 56°02' W 003°04'5 9.1
2017-Oct-16 20:00N 55°60' W 003°12'1 1.8
2017-Oct-16 19:30N 55°59' W 003°11'0 0.6
2017-Oct-16 19:00N 55°59' W 003°10'0 0.2
2017-Oct-16 18:28N 55°59' W 003°10'0 0.0
2017-Oct-16 17:58N 55°59' W 003°10'0 0.0
2017-Oct-16 17:28N 55°59' W 003°10'0 0.0
2017-Oct-16 16:58N 55°59' W 003°10'0 0.0
2017-Oct-16 16:28N 55°59' W 003°10'0 0.0
2017-Oct-16 15:58N 55°59' W 003°10'0 0.0
2017-Oct-16 15:28N 55°59' W 003°10'0 0.0
2017-Oct-16 14:58N 55°59' W 003°10'0 0.0
2017-Oct-16 13:58N 55°59' W 003°10'0 0.0
2017-Oct-16 13:28N 55°59' W 003°10'0 0.0
2017-Oct-16 12:58N 55°59' W 003°10'0 0.0
2017-Oct-16 12:28N 55°59' W 003°10'0 0.0
2017-Oct-16 11:58N 55°59' W 003°10'0 0.0
2017-Oct-16 11:28N 55°59' W 003°10'0 0.0
2017-Oct-16 10:58N 55°59' W 003°10'0 0.0
2017-Oct-16 10:28N 55°59' W 003°10'0 0.0
2017-Oct-16 09:58N 55°59' W 003°10'0 0.0
2017-Oct-16 09:28N 55°59' W 003°10'0 0.0
2017-Oct-16 08:58N 55°59' W 003°10'0 0.0
2017-Oct-16 08:28N 55°59' W 003°10'0 0.0
2017-Oct-16 07:58N 55°59' W 003°10'0 0.0
2017-Oct-16 07:28N 55°59' W 003°10'0 0.0
2017-Oct-16 06:58N 55°59' W 003°10'0 0.0
2017-Oct-16 06:28N 55°59' W 003°10'0 0.0
2017-Oct-16 05:58N 55°59' W 003°10'0 0.0
2017-Oct-16 05:28N 55°59' W 003°10'0 0.0
2017-Oct-16 04:58N 55°59' W 003°10'0 0.0
2017-Oct-16 04:28N 55°59' W 003°10'0 0.0
2017-Oct-16 03:58N 55°59' W 003°10'0 0.0
2017-Oct-16 03:28N 55°59' W 003°10'0 0.0
2017-Oct-16 02:58N 55°59' W 003°10'0 0.0
2017-Oct-16 02:28N 55°59' W 003°10'0 0.0
2017-Oct-16 01:58N 55°59' W 003°10'0 0.0
2017-Oct-16 01:28N 55°59' W 003°10'0 0.0
2017-Oct-16 00:58N 55°59' W 003°10'0 0.0
2017-Oct-16 00:29N 55°59' W 003°10'0 0.6
2017-Oct-16 00:00N 55°59' W 003°11'0 0.5
2017-Oct-15 23:30N 55°59' W 003°11'1 2.8
2017-Oct-15 23:00N 56°00' W 003°09'2 4.2
2017-Oct-15 22:28N 56°02' W 003°06'0 0.1
2017-Oct-15 21:58N 56°02' W 003°06'0 0.0
2017-Oct-15 21:28N 56°02' W 003°06'0 0.0
2017-Oct-15 20:58N 56°02' W 003°06'0 0.0
2017-Oct-15 20:28N 56°02' W 003°06'0 0.0
2017-Oct-15 19:58N 56°02' W 003°06'0 0.0
2017-Oct-15 19:28N 56°02' W 003°06'0 0.2
2017-Oct-15 19:00N 56°02' W 003°06'4 7.8
2017-Oct-15 18:30N 56°03' W 002°60'611.4
2017-Oct-15 18:00N 56°06' W 002°51'611.1
2017-Oct-15 17:30N 56°09' W 002°43'510.7
2017-Oct-15 17:00N 56°12' W 002°35'510.4
2017-Oct-15 16:30N 56°17' W 002°29'510.6
2017-Oct-15 16:00N 56°21' W 002°24'510.3
2017-Oct-15 15:30N 56°25' W 002°19'510.3
2017-Oct-15 15:00N 56°30' W 002°15'26 9.7
2017-Oct-15 12:23N 56°54' W 001°60'6 9.1
2017-Oct-15 11:42N 57°00' W 001°56'2 9.8
2017-Oct-15 11:30N 57°02' W 001°55'5 9.8
2017-Oct-15 11:00N 57°07' W 001°53'5 9.6
2017-Oct-15 10:30N 57°11' W 001°50'510.0
2017-Oct-15 10:00N 57°16' W 001°48'6 9.7
2017-Oct-15 09:23N 57°22' W 001°44'510.1
2017-Oct-15 08:56N 57°26' W 001°42'510.5
2017-Oct-15 08:30N 57°31' W 001°41'510.7
2017-Oct-15 08:00N 57°36' W 001°41'511.0
2017-Oct-15 07:30N 57°41' W 001°45'611.3
2017-Oct-15 07:00N 57°46' W 001°51'611.2
2017-Oct-15 06:30N 57°51' W 001°56'1311.1
2017-Oct-15 05:22N 58°01' W 002°10'3 9.1
2017-Oct-15 05:00N 58°04' W 002°13'1010.5
2017-Oct-15 04:05N 58°12' W 002°23'110.8
2017-Oct-15 03:57N 58°13' W 002°24'510.6
2017-Oct-15 03:30N 58°17' W 002°29'510.6
2017-Oct-15 03:00N 58°22' W 002°34'510.5
2017-Oct-15 02:30N 58°26' W 002°40'510.4
2017-Oct-15 02:00N 58°30' W 002°46'510.1
2017-Oct-15 01:30N 58°34' W 002°51'5 9.8
2017-Oct-15 01:00N 58°38' W 002°57'4 8.3
2017-Oct-15 00:30N 58°41' W 003°02'3 6.4
2017-Oct-15 00:00N 58°43' W 003°07'2 4.7
2017-Oct-14 23:30N 58°43' W 003°12'2 5.0
2017-Oct-14 23:00N 58°43' W 003°17'4 7.7
2017-Oct-14 22:30N 58°44' W 003°24'5 9.3
2017-Oct-14 22:00N 58°43' W 003°33'510.4
2017-Oct-14 21:30N 58°43' W 003°43'510.8
2017-Oct-14 21:00N 58°42' W 003°53'611.3
2017-Oct-14 20:30N 58°42' W 004°04'611.2
2017-Oct-14 20:00N 58°42' W 004°15'711.3
2017-Oct-14 19:24N 58°41' W 004°28'2610.9
2017-Oct-14 17:00N 58°31' W 005°14'169 9.5
2017-Oct-13 23:11N 55°50' W 006°50'1 6.4
2017-Oct-13 23:01N 55°49' W 006°48'3 6.8
2017-Oct-13 22:30N 55°46' W 006°44'3 6.9
2017-Oct-13 22:00N 55°44' W 006°40'4 8.1
2017-Oct-13 21:30N 55°41' W 006°36'611.0
2017-Oct-13 21:00N 55°36' W 006°30'612.7
2017-Oct-13 20:30N 55°31' W 006°23'713.1
2017-Oct-13 20:00N 55°26' W 006°15'612.7
2017-Oct-13 19:30N 55°25' W 006°04'612.5
2017-Oct-13 19:00N 55°20' W 005°56'612.9
2017-Oct-13 18:30N 55°16' W 005°48'911.7
2017-Oct-13 17:42N 55°15' W 005°31'19 0.6
2017-Oct-12 09:49N 54°58' W 005°15'310.8
2017-Oct-12 09:30N 54°54' W 005°15'611.8
2017-Oct-12 09:00N 54°49' W 005°14'612.2
2017-Oct-12 08:30N 54°43' W 005°13'612.2
2017-Oct-12 08:00N 54°36' W 005°11'612.3
2017-Oct-12 07:30N 54°30' W 005°10'612.1
2017-Oct-12 07:00N 54°24' W 005°09'611.5
2017-Oct-12 06:30N 54°19' W 005°07'611.5
2017-Oct-12 05:59N 54°13' W 005°07'511.2
2017-Oct-12 05:30N 54°07' W 005°07'33810.6
2017-Oct-10 21:38N 48°39' W 007°15'1810.8
2017-Oct-10 19:58N 48°22' W 007°23'  
Track history (hours):
 
Tides and Currents Weather Stations Pressure Air Temp Water Temp Dewpoint Dewpoint Depression Visibility Wind Speed Wind Dir Waves Ship Positions

Wilson Cadiz

Last reported at 2017-Oct-19 12:30 UTC. Time now 2017-Oct-19 12:58 UTC.
Position N 52°52' E 002°03'.

Length 100 m; draft 3.6 m.

Type: Ship. MMSI: 314216000.

Date/timePositionNaut miles runAvg speedWind from/ knotsBaromVisibWave heightAir tempDewpointWater temp
2017-Oct-19 12:30N 52°52' E 002°03'714.5
2017-Oct-19 12:00N 52°47' E 002°12'713.2
2017-Oct-19 11:29N 52°44' E 002°22'713.1
2017-Oct-19 10:59N 52°42' E 002°33'1412.9
2017-Oct-19 09:55N 52°38' E 002°55'513.0
2017-Oct-19 09:30N 52°37' E 003°03'611.9
2017-Oct-19 09:00N 52°34' E 003°12'712.9
2017-Oct-19 08:30N 52°33' E 003°22'713.0
2017-Oct-19 07:59N 52°31' E 003°33'713.2
2017-Oct-19 07:29N 52°31' E 003°44'613.2
2017-Oct-19 07:00N 52°31' E 003°54'613.0
2017-Oct-19 06:30N 52°31' E 004°05'612.8
2017-Oct-19 06:00N 52°30' E 004°15'612.5
2017-Oct-19 05:30N 52°29' E 004°26'611.4
2017-Oct-19 05:01N 52°28' E 004°35'1 1.7
2017-Oct-19 04:30N 52°28' E 004°36'0 0.0
2017-Oct-19 04:00N 52°28' E 004°36'0 0.0
2017-Oct-19 03:30N 52°28' E 004°36'1 1.5
2017-Oct-19 03:00N 52°28' E 004°37'4 7.7
2017-Oct-19 02:31N 52°26' E 004°43'510.4
2017-Oct-19 02:01N 52°25' E 004°51'1 1.7
2017-Oct-19 01:29N 52°24' E 004°51'0 0.0
2017-Oct-19 00:59N 52°24' E 004°51'0 0.0
2017-Oct-19 00:29N 52°24' E 004°51'0 0.0
2017-Oct-18 23:59N 52°24' E 004°51'0 0.0
2017-Oct-18 23:29N 52°24' E 004°51'0 0.0
2017-Oct-18 22:59N 52°24' E 004°51'0 0.0
2017-Oct-18 22:29N 52°24' E 004°51'0 0.0
2017-Oct-18 21:59N 52°24' E 004°51'0 0.0
2017-Oct-18 21:29N 52°24' E 004°51'0 0.0
2017-Oct-18 20:59N 52°24' E 004°51'0 0.0
2017-Oct-18 20:29N 52°24' E 004°51'0 0.0
2017-Oct-18 19:59N 52°24' E 004°51'0 0.0
2017-Oct-18 19:29N 52°24' E 004°51'0 0.0
2017-Oct-18 18:59N 52°24' E 004°51'0 0.0
2017-Oct-18 18:29N 52°24' E 004°51'0 0.0
2017-Oct-18 17:59N 52°24' E 004°51'0 0.0
2017-Oct-18 17:29N 52°24' E 004°51'0 0.0
2017-Oct-18 16:59N 52°24' E 004°51'0 0.0
2017-Oct-18 16:29N 52°24' E 004°51'0 0.0
2017-Oct-18 16:01N 52°24' E 004°51'1 1.5
2017-Oct-18 15:31N 52°24' E 004°53'4 8.5
2017-Oct-18 15:01N 52°26' E 004°46'7 6.5
2017-Oct-18 14:00N 52°28' E 004°36'1 1.1
2017-Oct-18 13:30N 52°28' E 004°35'4 8.9
2017-Oct-18 13:00N 52°28' E 004°28'4 8.2
2017-Oct-18 12:30N 52°28' E 004°21'510.9
2017-Oct-18 12:00N 52°29' E 004°12'510.5
2017-Oct-18 11:30N 52°28' E 004°04'510.7
2017-Oct-18 11:00N 52°27' E 003°55'610.6
2017-Oct-18 10:26N 52°26' E 003°45'710.6
2017-Oct-18 09:46N 52°27' E 003°34'410.8
2017-Oct-18 09:25N 52°28' E 003°28'510.6
2017-Oct-18 08:58N 52°29' E 003°20'710.6
2017-Oct-18 08:18N 52°31' E 003°09'410.7
2017-Oct-18 07:57N 52°32' E 003°03'510.7
2017-Oct-18 07:30N 52°33' E 002°56'610.7
2017-Oct-18 06:59N 52°34' E 002°47'1210.8
2017-Oct-18 05:54N 52°38' E 002°28'1711.1
2017-Oct-18 04:24N 52°44' E 002°03'1211.3
2017-Oct-18 03:19N 52°51' E 001°46'710.5
2017-Oct-18 02:41N 52°55' E 001°37'610.1
2017-Oct-18 02:04N 52°59' E 001°30'1 9.8
2017-Oct-18 02:00N 53°00' E 001°30'5 9.8
2017-Oct-18 01:29N 53°04' E 001°26'13 9.5
2017-Oct-18 00:10N 53°15' E 001°15'2 9.4
2017-Oct-17 23:57N 53°17' E 001°13'56 7.8
2017-Oct-17 16:45N 54°07' E 000°30'9 8.5
2017-Oct-17 15:42N 54°14' E 000°21'2 8.7
2017-Oct-17 15:30N 54°16' E 000°19'4 8.5
2017-Oct-17 15:00N 54°19' E 000°15'4 8.5
2017-Oct-17 14:30N 54°22' E 000°11'4 8.2
2017-Oct-17 14:00N 54°26' E 000°06'5 9.3
2017-Oct-17 13:30N 54°29' E 000°01'5 9.4
2017-Oct-17 13:00N 54°33' W 000°04'5 9.4
2017-Oct-17 12:30N 54°37' W 000°08'5 9.6
2017-Oct-17 12:00N 54°41' W 000°13'5 9.4
2017-Oct-17 11:30N 54°45' W 000°18'28 7.8
2017-Oct-17 07:52N 55°07' W 000°47'2 6.2
2017-Oct-17 07:30N 55°09' W 000°50'9 6.3
2017-Oct-17 06:01N 55°17' W 000°60'0 6.8
2017-Oct-17 06:00N 55°17' W 000°60'3 6.6
2017-Oct-17 05:30N 55°19' W 001°03'4 6.9
2017-Oct-17 04:59N 55°22' W 001°07'3 7.2
2017-Oct-17 04:30N 55°25' W 001°11'4 8.2
2017-Oct-17 04:00N 55°28' W 001°16'4 8.5
2017-Oct-17 03:30N 55°31' W 001°21'4 8.9
2017-Oct-17 03:00N 55°35' W 001°25'4 8.9
2017-Oct-17 02:30N 55°39' W 001°29'5 9.1
2017-Oct-17 01:59N 55°42' W 001°35'510.5
2017-Oct-17 01:29N 55°45' W 001°42'510.9
2017-Oct-17 01:00N 55°49' W 001°49'510.8
2017-Oct-17 00:30N 55°52' W 001°57'510.9
2017-Oct-17 00:00N 55°56' W 002°04'510.8
2017-Oct-16 23:30N 55°59' W 002°12'510.6
2017-Oct-16 23:00N 56°01' W 002°20'510.5
2017-Oct-16 22:30N 56°03' W 002°29'510.1
2017-Oct-16 22:00N 56°05' W 002°37'510.4
2017-Oct-16 21:30N 56°05' W 002°47'510.4
2017-Oct-16 21:00N 56°04' W 002°56'510.4
2017-Oct-16 20:30N 56°02' W 003°04'5 9.1
2017-Oct-16 20:00N 55°60' W 003°12'1 1.8
2017-Oct-16 19:30N 55°59' W 003°11'0 0.6
2017-Oct-16 19:00N 55°59' W 003°10'0 0.2
2017-Oct-16 18:28N 55°59' W 003°10'0 0.0
2017-Oct-16 17:58N 55°59' W 003°10'0 0.0
2017-Oct-16 17:28N 55°59' W 003°10'0 0.0
2017-Oct-16 16:58N 55°59' W 003°10'0 0.0
2017-Oct-16 16:28N 55°59' W 003°10'0 0.0
2017-Oct-16 15:58N 55°59' W 003°10'0 0.0
2017-Oct-16 15:28N 55°59' W 003°10'0 0.0
2017-Oct-16 14:58N 55°59' W 003°10'0 0.0
2017-Oct-16 13:58N 55°59' W 003°10'0 0.0
2017-Oct-16 13:28N 55°59' W 003°10'0 0.0
2017-Oct-16 12:58N 55°59' W 003°10'0 0.0
2017-Oct-16 12:28N 55°59' W 003°10'0 0.0
2017-Oct-16 11:58N 55°59' W 003°10'0 0.0
2017-Oct-16 11:28N 55°59' W 003°10'0 0.0
2017-Oct-16 10:58N 55°59' W 003°10'0 0.0
2017-Oct-16 10:28N 55°59' W 003°10'0 0.0
2017-Oct-16 09:58N 55°59' W 003°10'0 0.0
2017-Oct-16 09:28N 55°59' W 003°10'0 0.0
2017-Oct-16 08:58N 55°59' W 003°10'0 0.0
2017-Oct-16 08:28N 55°59' W 003°10'0 0.0
2017-Oct-16 07:58N 55°59' W 003°10'0 0.0
2017-Oct-16 07:28N 55°59' W 003°10'0 0.0
2017-Oct-16 06:58N 55°59' W 003°10'0 0.0
2017-Oct-16 06:28N 55°59' W 003°10'0 0.0
2017-Oct-16 05:58N 55°59' W 003°10'0 0.0
2017-Oct-16 05:28N 55°59' W 003°10'0 0.0
2017-Oct-16 04:58N 55°59' W 003°10'0 0.0
2017-Oct-16 04:28N 55°59' W 003°10'0 0.0
2017-Oct-16 03:58N 55°59' W 003°10'0 0.0
2017-Oct-16 03:28N 55°59' W 003°10'0 0.0
2017-Oct-16 02:58N 55°59' W 003°10'0 0.0
2017-Oct-16 02:28N 55°59' W 003°10'0 0.0
2017-Oct-16 01:58N 55°59' W 003°10'0 0.0
2017-Oct-16 01:28N 55°59' W 003°10'0 0.0
2017-Oct-16 00:58N 55°59' W 003°10'0 0.0
2017-Oct-16 00:29N 55°59' W 003°10'0 0.6
2017-Oct-16 00:00N 55°59' W 003°11'0 0.5
2017-Oct-15 23:30N 55°59' W 003°11'1 2.8
2017-Oct-15 23:00N 56°00' W 003°09'2 4.2
2017-Oct-15 22:28N 56°02' W 003°06'0 0.1
2017-Oct-15 21:58N 56°02' W 003°06'0 0.0
2017-Oct-15 21:28N 56°02' W 003°06'0 0.0
2017-Oct-15 20:58N 56°02' W 003°06'0 0.0
2017-Oct-15 20:28N 56°02' W 003°06'0 0.0
2017-Oct-15 19:58N 56°02' W 003°06'0 0.0
2017-Oct-15 19:28N 56°02' W 003°06'0 0.2
2017-Oct-15 19:00N 56°02' W 003°06'4 7.8
2017-Oct-15 18:30N 56°03' W 002°60'611.4
2017-Oct-15 18:00N 56°06' W 002°51'611.1
2017-Oct-15 17:30N 56°09' W 002°43'510.7
2017-Oct-15 17:00N 56°12' W 002°35'510.4
2017-Oct-15 16:30N 56°17' W 002°29'510.6
2017-Oct-15 16:00N 56°21' W 002°24'510.3
2017-Oct-15 15:30N 56°25' W 002°19'510.3
2017-Oct-15 15:00N 56°30' W 002°15'26 9.7
2017-Oct-15 12:23N 56°54' W 001°60'6 9.1
2017-Oct-15 11:42N 57°00' W 001°56'2 9.8
2017-Oct-15 11:30N 57°02' W 001°55'5 9.8
2017-Oct-15 11:00N 57°07' W 001°53'5 9.6
2017-Oct-15 10:30N 57°11' W 001°50'510.0
2017-Oct-15 10:00N 57°16' W 001°48'6 9.7
2017-Oct-15 09:23N 57°22' W 001°44'510.1
2017-Oct-15 08:56N 57°26' W 001°42'510.5
2017-Oct-15 08:30N 57°31' W 001°41'510.7
2017-Oct-15 08:00N 57°36' W 001°41'511.0
2017-Oct-15 07:30N 57°41' W 001°45'611.3
2017-Oct-15 07:00N 57°46' W 001°51'611.2
2017-Oct-15 06:30N 57°51' W 001°56'1311.1
2017-Oct-15 05:22N 58°01' W 002°10'3 9.1
2017-Oct-15 05:00N 58°04' W 002°13'1010.5
2017-Oct-15 04:05N 58°12' W 002°23'110.8
2017-Oct-15 03:57N 58°13' W 002°24'510.6
2017-Oct-15 03:30N 58°17' W 002°29'510.6
2017-Oct-15 03:00N 58°22' W 002°34'510.5
2017-Oct-15 02:30N 58°26' W 002°40'510.4
2017-Oct-15 02:00N 58°30' W 002°46'510.1
2017-Oct-15 01:30N 58°34' W 002°51'5 9.8
2017-Oct-15 01:00N 58°38' W 002°57'4 8.3
2017-Oct-15 00:30N 58°41' W 003°02'3 6.4
2017-Oct-15 00:00N 58°43' W 003°07'2 4.7
2017-Oct-14 23:30N 58°43' W 003°12'2 5.0
2017-Oct-14 23:00N 58°43' W 003°17'4 7.7
2017-Oct-14 22:30N 58°44' W 003°24'5 9.3
2017-Oct-14 22:00N 58°43' W 003°33'510.4
2017-Oct-14 21:30N 58°43' W 003°43'510.8
2017-Oct-14 21:00N 58°42' W 003°53'611.3
2017-Oct-14 20:30N 58°42' W 004°04'611.2
2017-Oct-14 20:00N 58°42' W 004°15'711.3
2017-Oct-14 19:24N 58°41' W 004°28'2610.9
2017-Oct-14 17:00N 58°31' W 005°14'169 9.5
2017-Oct-13 23:11N 55°50' W 006°50'1 6.4
2017-Oct-13 23:01N 55°49' W 006°48'3 6.8
2017-Oct-13 22:30N 55°46' W 006°44'3 6.9
2017-Oct-13 22:00N 55°44' W 006°40'4 8.1
2017-Oct-13 21:30N 55°41' W 006°36'611.0
2017-Oct-13 21:00N 55°36' W 006°30'612.7
2017-Oct-13 20:30N 55°31' W 006°23'713.1
2017-Oct-13 20:00N 55°26' W 006°15'612.7
2017-Oct-13 19:30N 55°25' W 006°04'612.5
2017-Oct-13 19:00N 55°20' W 005°56'612.9
2017-Oct-13 18:30N 55°16' W 005°48'911.7
2017-Oct-13 17:42N 55°15' W 005°31'19 0.6
2017-Oct-12 09:49N 54°58' W 005°15'310.8
2017-Oct-12 09:30N 54°54' W 005°15'611.8
2017-Oct-12 09:00N 54°49' W 005°14'612.2
2017-Oct-12 08:30N 54°43' W 005°13'612.2
2017-Oct-12 08:00N 54°36' W 005°11'612.3
2017-Oct-12 07:30N 54°30' W 005°10'612.1
2017-Oct-12 07:00N 54°24' W 005°09'611.5
2017-Oct-12 06:30N 54°19' W 005°07'611.5
2017-Oct-12 05:59N 54°13' W 005°07'511.2
2017-Oct-12 05:30N 54°07' W 005°07'33810.6
2017-Oct-10 21:38N 48°39' W 007°15'1810.8
2017-Oct-10 19:58N 48°22' W 007°23'  

Dump ship's entire track history